createdAt,value
2019-05-30T00:01:19.160Z,99.90
2019-05-30T00:03:49.197Z,99.90
2019-05-30T00:06:19.221Z,99.90
2019-05-30T00:08:49.556Z,99.90
2019-05-30T00:11:19.598Z,99.90
2019-05-30T00:13:49.637Z,99.90
2019-05-30T00:16:19.993Z,99.90
2019-05-30T00:18:50.053Z,99.90
2019-05-30T00:21:20.085Z,99.90
2019-05-30T00:23:50.180Z,99.90
2019-05-30T00:26:20.317Z,99.90
2019-05-30T00:28:50.440Z,99.90
2019-05-30T00:31:21.593Z,99.90
2019-05-30T00:33:51.867Z,99.90
2019-05-30T00:36:21.979Z,99.90
2019-05-30T00:38:52.194Z,99.90
2019-05-30T00:41:22.298Z,99.90
2019-05-30T00:43:52.357Z,99.90
2019-05-30T00:46:22.485Z,99.90
2019-05-30T00:48:52.498Z,99.90
2019-05-30T00:51:22.674Z,99.90
2019-05-30T00:53:52.686Z,99.90
2019-05-30T00:56:22.799Z,99.90
2019-05-30T00:58:52.922Z,99.90
2019-05-30T01:01:22.897Z,99.90
2019-05-30T01:03:53.017Z,99.90
2019-05-30T01:06:30.587Z,99.90
2019-05-30T01:09:01.181Z,99.90
2019-05-30T01:11:32.839Z,99.90
2019-05-30T01:14:03.754Z,99.90
2019-05-30T01:16:33.882Z,99.90
2019-05-30T01:19:05.195Z,99.90
2019-05-30T01:21:49.556Z,99.90
2019-05-30T01:24:24.307Z,99.90
2019-05-30T01:26:57.067Z,99.90
2019-05-30T01:29:27.276Z,99.90
2019-05-30T01:31:57.453Z,99.90
2019-05-30T01:34:27.519Z,99.90
2019-05-30T01:36:57.639Z,99.90
2019-05-30T01:39:27.635Z,99.90
2019-05-30T01:41:57.809Z,99.90
2019-05-30T01:44:27.734Z,99.90
2019-05-30T01:46:58.191Z,99.90
2019-05-30T01:49:28.273Z,99.90
2019-05-30T01:51:58.603Z,99.90
2019-05-30T01:54:28.694Z,99.90
2019-05-30T01:57:12.947Z,99.90
2019-05-30T01:59:44.536Z,99.90
2019-05-30T02:02:14.657Z,99.90
2019-05-30T02:04:44.678Z,99.90
2019-05-30T02:07:14.694Z,99.90
2019-05-30T02:09:44.714Z,99.90
2019-05-30T02:12:14.939Z,99.90
2019-05-30T02:14:44.931Z,99.90
2019-05-30T02:17:14.921Z,99.90
2019-05-30T02:19:45.054Z,99.90
2019-05-30T02:22:15.037Z,99.90
2019-05-30T02:24:45.159Z,99.90
2019-05-30T02:27:15.137Z,99.90
2019-05-30T02:29:45.220Z,99.90
2019-05-30T02:32:15.435Z,99.90
2019-05-30T02:34:45.361Z,99.90
2019-05-30T02:37:15.467Z,99.90
2019-05-30T02:39:45.454Z,99.90
2019-05-30T02:42:16.758Z,99.90
2019-05-30T02:44:46.802Z,99.90
2019-05-30T02:47:16.894Z,99.90
2019-05-30T02:49:46.994Z,99.90
2019-05-30T02:52:16.959Z,99.90
2019-05-30T02:54:47.998Z,99.90
2019-05-30T02:57:18.048Z,99.90
2019-05-30T02:59:48.216Z,99.90
2019-05-30T03:02:43.850Z,99.90
2019-05-30T03:05:15.636Z,99.90
2019-05-30T03:08:27.022Z,99.90
2019-05-30T03:10:38.875Z,99.90
2019-05-30T03:13:10.596Z,99.90
2019-05-30T03:15:40.736Z,99.90
2019-05-30T03:18:12.802Z,99.90
2019-05-30T03:20:42.655Z,99.90
2019-05-30T03:23:28.098Z,99.90
2019-05-30T03:25:58.176Z,99.90
2019-05-30T03:28:28.623Z,99.90
2019-05-30T03:31:00.169Z,99.90
2019-05-30T03:33:39.571Z,99.90
2019-05-30T03:36:09.221Z,99.90
2019-05-30T03:38:34.560Z,99.90
2019-05-30T03:41:06.770Z,99.90
2019-05-30T03:43:37.236Z,99.90
2019-05-30T03:46:11.085Z,99.90
2019-05-30T03:48:44.487Z,99.90
2019-05-30T03:51:16.499Z,99.90
2019-05-30T03:56:56.737Z,99.90
2019-05-30T03:59:44.433Z,99.90
2019-05-30T04:02:29.380Z,99.90
2019-05-30T04:05:06.691Z,99.90
2019-05-30T04:07:42.520Z,99.90
2019-05-30T04:13:54.077Z,99.90
2019-05-30T04:17:02.327Z,99.90
2019-05-30T04:19:46.173Z,99.90
2019-05-30T04:25:45.076Z,99.90
2019-05-30T04:28:16.173Z,99.90
2019-05-30T04:30:46.636Z,99.90
2019-05-30T04:33:29.451Z,99.90
2019-05-30T04:39:27.200Z,99.90
2019-05-30T04:41:57.238Z,99.90
2019-05-30T04:44:27.262Z,99.90
2019-05-30T04:47:56.514Z,99.90
2019-05-30T04:50:26.496Z,99.90
2019-05-30T04:53:44.835Z,99.90
2019-05-30T04:56:16.868Z,99.90
2019-05-30T04:58:46.576Z,99.90
2019-05-30T05:01:17.757Z,99.90
2019-05-30T05:03:48.298Z,99.90
2019-05-30T05:06:19.729Z,99.90
2019-05-30T05:09:03.141Z,99.90
2019-05-30T05:11:33.236Z,99.90
2019-05-30T05:14:03.294Z,99.90
2019-05-30T05:16:35.998Z,99.90
2019-05-30T05:19:05.076Z,99.90
2019-05-30T05:21:35.174Z,99.90
2019-05-30T05:24:05.199Z,99.90
2019-05-30T05:26:35.213Z,99.90
2019-05-30T05:29:05.434Z,99.90
2019-05-30T05:31:35.452Z,99.90
2019-05-30T05:34:05.516Z,99.90
2019-05-30T05:40:02.551Z,99.90
2019-05-30T05:42:32.602Z,99.90
2019-05-30T05:45:02.747Z,99.90
2019-05-30T05:47:32.735Z,99.90
2019-05-30T05:50:02.935Z,99.90
2019-05-30T05:52:32.974Z,99.90
2019-05-30T05:55:02.959Z,99.90
2019-05-30T05:57:32.994Z,99.90
2019-05-30T06:00:10.039Z,99.90
2019-05-30T06:02:40.080Z,99.90
2019-05-30T06:05:10.539Z,99.90
2019-05-30T06:07:40.507Z,99.90
2019-05-30T06:10:11.129Z,99.90
2019-05-30T06:12:41.198Z,99.90
2019-05-30T06:15:11.478Z,99.90
2019-05-30T06:17:41.527Z,99.90
2019-05-30T06:20:11.868Z,99.90
2019-05-30T06:22:42.003Z,99.90
2019-05-30T06:25:12.281Z,99.90
2019-05-30T06:27:42.335Z,99.90
2019-05-30T06:30:12.742Z,99.90
2019-05-30T06:39:48.259Z,99.90
2019-05-30T06:42:19.498Z,99.90
2019-05-30T06:44:49.698Z,99.90
2019-05-30T06:47:20.179Z,99.90
2019-05-30T06:49:50.518Z,99.90
2019-05-30T06:52:20.899Z,99.90
2019-05-30T06:54:51.099Z,99.90
2019-05-30T06:57:21.197Z,99.90
2019-05-30T07:00:09.161Z,99.90
2019-05-30T07:02:39.198Z,99.90
2019-05-30T07:05:12.618Z,99.90
2019-05-30T07:11:00.929Z,99.90
2019-05-30T07:13:31.656Z,99.90
2019-05-30T07:16:01.948Z,99.90
2019-05-30T07:18:34.691Z,99.90
2019-05-30T07:21:03.584Z,99.90
2019-05-30T07:23:34.047Z,99.90
2019-05-30T07:26:04.302Z,99.90
2019-05-30T07:28:34.269Z,99.90
2019-05-30T07:31:04.379Z,99.90
2019-05-30T07:33:34.590Z,99.90
2019-05-30T07:36:04.917Z,99.90
2019-05-30T07:38:34.940Z,99.90
2019-05-30T07:41:05.179Z,99.90
2019-05-30T07:43:35.336Z,99.90
2019-05-30T07:46:06.697Z,99.90
2019-05-30T07:48:36.741Z,99.90
2019-05-30T07:51:06.917Z,99.90
2019-05-30T07:53:36.918Z,99.90
2019-05-30T07:56:07.254Z,99.90
2019-05-30T07:58:37.425Z,99.90
2019-05-30T08:01:08.915Z,99.90
2019-05-30T08:03:38.979Z,99.90
2019-05-30T08:06:09.116Z,99.90
2019-05-30T08:08:39.105Z,99.90
2019-05-30T08:11:10.261Z,99.90
2019-05-30T08:13:40.596Z,99.90
2019-05-30T08:16:10.556Z,99.90
2019-05-30T08:18:40.707Z,99.90
2019-05-30T08:21:10.779Z,99.90
2019-05-30T08:23:40.742Z,99.80
2019-05-30T08:26:10.967Z,99.90
2019-05-30T08:28:42.665Z,99.90
2019-05-30T08:31:12.690Z,99.90
2019-05-30T08:33:42.718Z,99.90
2019-05-30T08:36:12.858Z,99.90
2019-05-30T08:38:42.898Z,99.90
2019-05-30T08:41:13.006Z,99.90
2019-05-30T08:43:43.079Z,99.90
2019-05-30T08:46:13.140Z,99.90
2019-05-30T08:48:43.079Z,99.90
2019-05-30T08:51:13.180Z,99.90
2019-05-30T08:53:43.147Z,99.90
2019-05-30T08:56:13.349Z,99.90
2019-05-30T08:58:43.416Z,99.90
2019-05-30T09:01:14.438Z,99.90
2019-05-30T09:03:44.517Z,99.90
2019-05-30T09:06:14.541Z,99.90
2019-05-30T09:08:44.557Z,99.90
2019-05-30T09:11:14.500Z,96.60
2019-05-30T09:13:44.654Z,96.50
2019-05-30T09:16:14.747Z,99.60
2019-05-30T09:18:45.248Z,95.80
2019-05-30T09:21:15.456Z,92.70
2019-05-30T09:23:46.212Z,99.10
2019-05-30T09:26:16.518Z,96.60
2019-05-30T09:28:46.461Z,98.70
2019-05-30T09:31:16.402Z,98.00
2019-05-30T09:33:46.671Z,95.80
2019-05-30T09:36:16.861Z,91.20
2019-05-30T09:38:47.478Z,95.20
2019-05-30T09:41:17.599Z,98.60
2019-05-30T09:43:48.187Z,92.00
2019-05-30T09:46:18.426Z,91.40
2019-05-30T09:48:48.691Z,89.90
2019-05-30T09:51:18.876Z,96.20
2019-05-30T09:53:49.020Z,95.80
2019-05-30T09:56:19.141Z,93.60
2019-05-30T09:58:49.763Z,94.60
2019-05-30T10:01:19.858Z,98.40
2019-05-30T10:03:50.212Z,95.10
2019-05-30T10:06:28.888Z,97.10
2019-05-30T10:08:52.977Z,95.80
2019-05-30T10:11:23.238Z,96.70
2019-05-30T10:13:53.279Z,98.80
2019-05-30T10:16:23.336Z,93.90
2019-05-30T10:18:53.442Z,95.10
2019-05-30T10:21:23.472Z,97.40
2019-05-30T10:23:53.704Z,99.90
2019-05-30T10:26:23.901Z,98.10
2019-05-30T10:28:53.998Z,97.20
2019-05-30T10:32:27.527Z,99.90
2019-05-30T10:34:19.888Z,99.40
2019-05-30T10:36:48.737Z,98.80
2019-05-30T10:39:32.207Z,97.00
2019-05-30T10:42:03.717Z,96.60
2019-05-30T10:44:33.720Z,98.20
2019-05-30T10:47:03.857Z,94.40
2019-05-30T10:49:35.261Z,97.00
2019-05-30T10:52:05.507Z,97.50
2019-05-30T10:54:35.579Z,94.70
2019-05-30T10:57:05.727Z,96.70
2019-05-30T10:59:35.869Z,97.50
2019-05-30T11:02:06.105Z,95.80
2019-05-30T11:04:36.379Z,94.40
2019-05-30T11:07:16.399Z,92.40
2019-05-30T11:09:50.542Z,92.00
2019-05-30T11:12:20.599Z,94.10
2019-05-30T11:14:51.495Z,94.70
2019-05-30T11:17:21.613Z,93.80
2019-05-30T11:19:52.048Z,97.10
2019-05-30T11:22:33.730Z,95.70
2019-05-30T11:25:22.587Z,93.30
2019-05-30T11:28:10.187Z,92.30
2019-05-30T11:30:32.739Z,93.90
2019-05-30T11:33:02.782Z,95.90
2019-05-30T11:35:48.872Z,96.90
2019-05-30T11:38:18.277Z,94.40
2019-05-30T11:40:49.293Z,92.40
2019-05-30T11:43:19.468Z,95.60
2019-05-30T11:45:49.746Z,95.00
2019-05-30T11:48:19.795Z,94.20
2019-05-30T11:50:50.769Z,93.90
2019-05-30T11:53:21.566Z,96.40
2019-05-30T11:55:52.313Z,96.50
2019-05-30T11:58:22.420Z,91.40
2019-05-30T12:00:53.120Z,91.70
2019-05-30T12:03:24.116Z,97.10
2019-05-30T12:05:55.138Z,94.60
2019-05-30T12:08:27.609Z,91.40
2019-05-30T12:10:59.347Z,84.30
2019-05-30T12:13:29.522Z,92.80
2019-05-30T12:16:18.067Z,93.50
2019-05-30T12:18:45.561Z,90.90
2019-05-30T12:21:51.564Z,87.40
2019-05-30T12:24:05.667Z,85.00
2019-05-30T12:26:33.902Z,84.10
2019-05-30T12:29:05.438Z,87.20
2019-05-30T12:31:35.500Z,92.10
2019-05-30T12:34:05.695Z,91.00
2019-05-30T12:36:35.779Z,87.20
2019-05-30T12:39:07.419Z,87.60
2019-05-30T12:41:49.808Z,87.70
2019-05-30T12:47:40.813Z,90.60
2019-05-30T12:50:15.957Z,86.10
2019-05-30T12:52:45.735Z,87.50
2019-05-30T12:55:23.847Z,78.40
2019-05-30T12:57:51.455Z,90.70
2019-05-30T13:00:33.367Z,84.60
2019-05-30T13:03:12.867Z,85.60
2019-05-30T13:05:42.927Z,88.70
2019-05-30T13:08:21.153Z,85.90
2019-05-30T13:10:44.597Z,82.50
2019-05-30T13:13:14.704Z,88.40
2019-05-30T13:15:44.750Z,90.30
2019-05-30T13:18:25.047Z,86.70
2019-05-30T13:20:55.944Z,90.30
2019-05-30T13:24:09.747Z,81.80
2019-05-30T13:26:12.015Z,87.20
2019-05-30T13:28:53.337Z,85.60
2019-05-30T13:31:23.379Z,90.40
2019-05-30T13:33:56.671Z,86.10
2019-05-30T13:36:26.799Z,76.60
2019-05-30T13:38:59.067Z,82.20
2019-05-30T13:41:29.194Z,85.90
2019-05-30T13:44:03.371Z,85.20
2019-05-30T13:46:30.835Z,81.40
2019-05-30T13:49:02.560Z,82.80
2019-05-30T13:51:32.796Z,78.50
2019-05-30T13:54:03.131Z,80.80
2019-05-30T13:56:33.239Z,74.30
2019-05-30T13:59:03.882Z,77.10
2019-05-30T14:01:34.175Z,78.10
2019-05-30T14:04:04.716Z,79.80
2019-05-30T14:06:35.964Z,83.90
2019-05-30T14:09:08.553Z,79.60
2019-05-30T14:11:38.786Z,80.10
2019-05-30T14:14:11.851Z,81.40
2019-05-30T14:16:42.052Z,81.20
2019-05-30T14:19:13.411Z,69.90
2019-05-30T14:21:43.811Z,71.30
2019-05-30T14:24:14.176Z,74.20
2019-05-30T14:26:44.424Z,69.90
2019-05-30T14:29:14.698Z,70.80
2019-05-30T14:31:44.857Z,68.50
2019-05-30T14:34:14.936Z,65.30
2019-05-30T14:36:45.097Z,63.20
2019-05-30T14:39:15.026Z,64.10
2019-05-30T14:41:45.138Z,66.80
2019-05-30T14:44:15.176Z,75.50
2019-05-30T14:46:45.856Z,65.90
2019-05-30T14:49:17.282Z,65.50
2019-05-30T14:51:47.654Z,68.30
2019-05-30T14:54:17.691Z,62.50
2019-05-30T14:56:47.843Z,59.50
2019-05-30T14:59:17.930Z,64.70
2019-05-30T15:01:48.062Z,70.30
2019-05-30T15:04:18.644Z,70.40
2019-05-30T15:06:48.872Z,65.30
2019-05-30T15:09:25.931Z,68.10
2019-05-30T15:11:51.231Z,69.30
2019-05-30T15:14:21.501Z,76.20
2019-05-30T15:16:51.984Z,66.50
2019-05-30T15:19:22.271Z,62.70
2019-05-30T15:21:52.764Z,61.60
2019-05-30T15:24:23.124Z,58.40
2019-05-30T15:26:53.431Z,68.20
2019-05-30T15:29:23.785Z,58.40
2019-05-30T15:31:53.873Z,62.10
2019-05-30T15:34:24.253Z,62.50
2019-05-30T15:36:54.845Z,61.70
2019-05-30T15:39:32.387Z,59.70
2019-05-30T15:41:56.526Z,62.30
2019-05-30T15:44:26.635Z,67.30
2019-05-30T15:47:01.045Z,65.30
2019-05-30T15:49:31.236Z,66.40
2019-05-30T15:52:02.348Z,67.60
2019-05-30T15:54:32.630Z,62.90
2019-05-30T15:57:02.698Z,60.10
2019-05-30T15:59:34.885Z,65.10
2019-05-30T16:02:05.344Z,63.20
2019-05-30T16:04:35.506Z,65.30
2019-05-30T16:07:06.565Z,67.00
2019-05-30T16:09:46.583Z,64.60
2019-05-30T16:12:08.237Z,64.60
2019-05-30T16:14:38.418Z,61.00
2019-05-30T16:17:09.796Z,69.90
2019-05-30T16:19:40.017Z,72.10
2019-05-30T16:22:10.076Z,67.40
2019-05-30T16:24:40.199Z,72.60
2019-05-30T16:27:10.361Z,69.20
2019-05-30T16:29:40.623Z,74.10
2019-05-30T16:32:10.656Z,72.40
2019-05-30T16:34:40.704Z,70.30
2019-05-30T16:37:10.890Z,70.10
2019-05-30T16:39:40.917Z,71.70
2019-05-30T16:42:11.097Z,72.80
2019-05-30T16:44:43.331Z,80.50
2019-05-30T16:47:14.370Z,83.40
2019-05-30T16:49:47.444Z,79.40
2019-05-30T16:52:19.129Z,75.50
2019-05-30T16:54:49.317Z,84.50
2019-05-30T16:57:20.593Z,86.20
2019-05-30T16:59:50.780Z,87.00
2019-05-30T17:02:20.994Z,92.30
2019-05-30T17:04:52.075Z,91.10
2019-05-30T17:07:23.293Z,91.50
2019-05-30T17:09:54.660Z,93.00
2019-05-30T17:12:25.784Z,92.20
2019-05-30T17:14:55.916Z,87.30
2019-05-30T17:17:26.938Z,92.60
2019-05-30T17:19:57.486Z,92.80
2019-05-30T17:22:30.519Z,93.90
2019-05-30T17:24:59.273Z,95.30
2019-05-30T17:27:29.439Z,96.60
2019-05-30T17:30:01.182Z,98.30
